Time;durP1;ratioP1;P1;durP2;ratioP2;P2;SDS_P1;SDS_P2;PMS_P1;PMS_P2;Temp;Humidity;BMP_temperature;BMP_pressure;BME280_temperature;BME280_humidity;BME280_pressure;Samples;Min_cycle;Max_cycle;Signal;HPM_P1;HPM_P2
2022/04/10 00:00:47;;;;;;;23.23;12.68;;;;;;;;;;5110665;28;20384;-74
2022/04/10 00:03:12;;;;;;;19.85;11.63;;;;;;;;;;5110336;28;20503;-73
2022/04/10 00:05:38;;;;;;;24.13;13.20;;;;;;;;;;5110606;28;20483;-73
2022/04/10 00:08:03;;;;;;;24.58;13.13;;;;;;;;;;5109030;28;20027;-73
2022/04/10 00:10:28;;;;;;;26.67;12.95;;;;;;;;;;5108746;28;20123;-73
2022/04/10 00:12:54;;;;;;;27.05;13.77;;;;;;;;;;5110483;28;20057;-73
2022/04/10 00:15:19;;;;;;;26.13;13.30;;;;;;;;;;5110578;28;20403;-72
2022/04/10 00:17:44;;;;;;;26.92;14.40;;;;;;;;;;5111774;28;20084;-74
2022/04/10 00:20:11;;;;;;;25.60;13.15;;;;;;;;;;5111249;28;20032;-73
2022/04/10 00:22:44;;;;;;;24.88;13.93;;;;;;;;;;5109724;28;20035;-73
2022/04/10 00:25:11;;;;;;;22.15;12.98;;;;;;;;;;5111145;28;20536;-73
2022/04/10 00:27:36;;;;;;;26.52;13.75;;;;;;;;;;5111170;28;20053;-73
2022/04/10 00:30:02;;;;;;;26.33;12.55;;;;;;;;;;5109783;28;20547;-73
2022/04/10 00:32:27;;;;;;;22.88;12.73;;;;;;;;;;5110146;28;20027;-73
2022/04/10 00:34:53;;;;;;;23.40;12.13;;;;;;;;;;5111618;28;20041;-73
2022/04/10 00:37:18;;;;;;;23.02;11.55;;;;;;;;;;5111509;28;20023;-73
2022/04/10 00:39:44;;;;;;;27.70;13.50;;;;;;;;;;5111170;28;20019;-73
2022/04/10 00:42:09;;;;;;;21.77;11.57;;;;;;;;;;5111071;28;20431;-73
2022/04/10 00:44:34;;;;;;;20.98;11.02;;;;;;;;;;5111121;28;20383;-73
2022/04/10 00:47:00;;;;;;;22.92;10.73;;;;;;;;;;5111403;28;20161;-73
2022/04/10 00:49:25;;;;;;;20.17;9.45;;;;;;;;;;5110000;28;20023;-73
2022/04/10 00:51:52;;;;;;;17.60;8.77;;;;;;;;;;5108734;28;20027;-72
2022/04/10 00:54:19;;;;;;;20.42;10.48;;;;;;;;;;5119917;28;20155;-72
2022/04/10 00:56:45;;;;;;;20.70;10.52;;;;;;;;;;5110336;28;20024;-72
2022/04/10 00:59:10;;;;;;;18.65;10.40;;;;;;;;;;5118906;28;20023;-73
2022/04/10 01:01:36;;;;;;;19.95;9.57;;;;;;;;;;5129470;28;20027;-72
2022/04/10 01:04:02;;;;;;;21.10;10.70;;;;;;;;;;5130727;27;20011;-72
2022/04/10 01:06:28;;;;;;;21.85;10.68;;;;;;;;;;5130793;27;20015;-72
2022/04/10 01:08:53;;;;;;;25.75;11.63;;;;;;;;;;5131096;27;20545;-72
2022/04/10 01:11:18;;;;;;;25.83;12.05;;;;;;;;;;5122157;28;20016;-72
2022/04/10 01:13:44;;;;;;;26.58;11.88;;;;;;;;;;5110399;28;20045;-72
2022/04/10 01:16:10;;;;;;;26.80;11.38;;;;;;;;;;5110332;28;20054;-73
2022/04/10 01:18:35;;;;;;;21.88;10.85;;;;;;;;;;5110443;28;20136;-72
2022/04/10 01:21:02;;;;;;;25.00;12.02;;;;;;;;;;5110354;28;20083;-72
2022/04/10 01:23:28;;;;;;;20.35;11.00;;;;;;;;;;5110418;28;20506;-72
2022/04/10 01:25:53;;;;;;;20.67;10.52;;;;;;;;;;5110428;28;20048;-72
2022/04/10 01:28:18;;;;;;;25.60;12.68;;;;;;;;;;5109100;28;20020;-73
2022/04/10 01:30:43;;;;;;;25.13;13.15;;;;;;;;;;5111273;28;20018;-72
2022/04/10 01:33:09;;;;;;;24.13;11.63;;;;;;;;;;5110639;28;20024;-72
2022/04/10 01:35:34;;;;;;;30.23;13.88;;;;;;;;;;5110175;28;20036;-72
2022/04/10 01:38:00;;;;;;;25.55;12.75;;;;;;;;;;5110487;28;20028;-72
2022/04/10 01:40:25;;;;;;;28.17;12.70;;;;;;;;;;5110744;28;20024;-72
2022/04/10 01:42:51;;;;;;;32.67;13.82;;;;;;;;;;5110364;28;20484;-72
2022/04/10 01:45:16;;;;;;;28.33;13.25;;;;;;;;;;5110417;28;20084;-71
2022/04/10 01:47:41;;;;;;;29.52;13.48;;;;;;;;;;5119608;27;20007;-72
2022/04/10 01:50:07;;;;;;;26.95;14.73;;;;;;;;;;5128815;27;20012;-72
2022/04/10 01:52:33;;;;;;;26.67;12.63;;;;;;;;;;5111247;28;20024;-71
2022/04/10 01:54:58;;;;;;;28.90;13.02;;;;;;;;;;5112887;28;20026;-71
2022/04/10 01:57:23;;;;;;;26.67;13.85;;;;;;;;;;5113680;28;20018;-72
2022/04/10 01:59:48;;;;;;;23.70;12.00;;;;;;;;;;5113000;28;20019;-75
2022/04/10 02:02:14;;;;;;;25.63;12.82;;;;;;;;;;5113776;28;20042;-73
2022/04/10 02:04:39;;;;;;;27.08;12.02;;;;;;;;;;5112084;28;20715;-73
2022/04/10 02:07:04;;;;;;;24.65;11.98;;;;;;;;;;5113376;28;20487;-73
2022/04/10 02:09:29;;;;;;;27.10;12.52;;;;;;;;;;5113303;28;20015;-73
2022/04/10 02:11:55;;;;;;;29.30;14.40;;;;;;;;;;5112269;28;20472;-73
2022/04/10 02:14:20;;;;;;;26.05;12.75;;;;;;;;;;5111926;28;20020;-73
2022/04/10 02:16:45;;;;;;;21.63;11.18;;;;;;;;;;5114281;28;20070;-73
2022/04/10 02:19:10;;;;;;;26.40;11.70;;;;;;;;;;5112769;28;20043;-73
2022/04/10 02:21:37;;;;;;;22.17;10.98;;;;;;;;;;5113491;28;20020;-73
2022/04/10 02:24:02;;;;;;;24.15;11.52;;;;;;;;;;5113350;28;20027;-72
2022/04/10 02:26:27;;;;;;;26.85;13.20;;;;;;;;;;5112241;28;20019;-73
2022/04/10 02:28:52;;;;;;;22.80;11.52;;;;;;;;;;5113232;28;20036;-73
2022/04/10 02:31:18;;;;;;;24.83;11.82;;;;;;;;;;5112832;28;20503;-73
2022/04/10 02:33:43;;;;;;;23.85;10.75;;;;;;;;;;5113822;28;20689;-73
2022/04/10 02:36:08;;;;;;;24.92;11.98;;;;;;;;;;5113455;28;20520;-72
2022/04/10 02:38:34;;;;;;;19.63;10.07;;;;;;;;;;5111960;28;20527;-73
2022/04/10 02:40:59;;;;;;;21.80;11.75;;;;;;;;;;5113060;28;20035;-73
2022/04/10 02:43:24;;;;;;;25.83;10.50;;;;;;;;;;5113031;28;20028;-72
2022/04/10 02:45:49;;;;;;;23.20;11.00;;;;;;;;;;5111642;28;20016;-73
2022/04/10 02:48:14;;;;;;;19.73;10.15;;;;;;;;;;5111189;28;20062;-73
2022/04/10 02:50:40;;;;;;;19.88;8.93;;;;;;;;;;5111743;28;20019;-73
2022/04/10 02:53:06;;;;;;;26.35;11.60;;;;;;;;;;5111779;28;20020;-73
2022/04/10 02:55:31;;;;;;;23.08;9.52;;;;;;;;;;5111056;28;20362;-73
2022/04/10 02:57:56;;;;;;;19.20;9.07;;;;;;;;;;5110488;28;20024;-73
2022/04/10 03:00:22;;;;;;;18.35;10.18;;;;;;;;;;5112330;28;20020;-73
2022/04/10 03:02:47;;;;;;;21.00;9.80;;;;;;;;;;5111891;28;20031;-76
2022/04/10 03:05:14;;;;;;;24.40;11.30;;;;;;;;;;5112406;28;20019;-73
2022/04/10 03:07:40;;;;;;;21.55;10.45;;;;;;;;;;5111195;28;20058;-73
2022/04/10 03:10:05;;;;;;;22.90;10.98;;;;;;;;;;5111020;28;20421;-73
2022/04/10 03:12:31;;;;;;;23.33;11.10;;;;;;;;;;5111151;28;20389;-73
2022/04/10 03:14:56;;;;;;;30.02;11.27;;;;;;;;;;5110714;28;20048;-74
2022/04/10 03:17:21;;;;;;;22.73;10.95;;;;;;;;;;5111394;28;20035;-72
2022/04/10 03:19:46;;;;;;;16.52;7.93;;;;;;;;;;5112362;28;20050;-73
2022/04/10 03:22:11;;;;;;;19.35;8.60;;;;;;;;;;5112253;28;20040;-73
2022/04/10 03:24:37;;;;;;;18.23;9.00;;;;;;;;;;5112157;28;20495;-73
2022/04/10 03:27:02;;;;;;;23.83;10.07;;;;;;;;;;5112325;28;20429;-73
2022/04/10 03:29:27;;;;;;;25.10;9.90;;;;;;;;;;5112285;28;20529;-73
2022/04/10 03:31:53;;;;;;;15.38;8.13;;;;;;;;;;5112272;28;20833;-73
2022/04/10 03:34:18;;;;;;;18.73;8.98;;;;;;;;;;5112054;28;20015;-72
2022/04/10 03:36:43;;;;;;;20.60;9.40;;;;;;;;;;5111855;28;20030;-73
2022/04/10 03:39:08;;;;;;;24.67;10.45;;;;;;;;;;5110965;28;20148;-73
2022/04/10 03:41:34;;;;;;;20.02;8.32;;;;;;;;;;5114174;28;20106;-74
2022/04/10 03:43:59;;;;;;;20.10;10.55;;;;;;;;;;5112560;28;20023;-73
2022/04/10 03:46:24;;;;;;;24.88;10.43;;;;;;;;;;5111691;28;20019;-73
2022/04/10 03:48:49;;;;;;;19.88;9.82;;;;;;;;;;5112294;28;20023;-73
2022/04/10 03:51:14;;;;;;;21.95;10.88;;;;;;;;;;5111597;28;20392;-73
2022/04/10 03:53:40;;;;;;;21.33;10.82;;;;;;;;;;5111896;28;20106;-73
2022/04/10 03:56:05;;;;;;;23.60;10.02;;;;;;;;;;5110322;28;20015;-73
2022/04/10 03:58:31;;;;;;;23.83;9.68;;;;;;;;;;5110355;28;20019;-73
2022/04/10 04:00:56;;;;;;;24.63;10.20;;;;;;;;;;5111518;28;20031;-74
2022/04/10 04:03:22;;;;;;;20.98;10.48;;;;;;;;;;5110301;28;20028;-74
2022/04/10 04:05:47;;;;;;;21.20;10.82;;;;;;;;;;5111491;28;20030;-74
2022/04/10 04:08:12;;;;;;;22.60;10.05;;;;;;;;;;5111133;28;20457;-74
2022/04/10 04:10:38;;;;;;;18.80;9.10;;;;;;;;;;5110659;28;20092;-74
2022/04/10 04:13:03;;;;;;;18.70;9.15;;;;;;;;;;5111573;28;20015;-73
2022/04/10 04:15:28;;;;;;;19.92;8.95;;;;;;;;;;5111120;28;20048;-73
2022/04/10 04:17:54;;;;;;;20.75;9.05;;;;;;;;;;5111773;28;20023;-74
2022/04/10 04:20:19;;;;;;;21.92;9.35;;;;;;;;;;5109551;28;20121;-74
2022/04/10 04:22:45;;;;;;;17.20;8.30;;;;;;;;;;5110078;28;20046;-74
2022/04/10 04:25:10;;;;;;;21.67;9.38;;;;;;;;;;5111200;28;20367;-74
2022/04/10 04:27:35;;;;;;;20.67;9.25;;;;;;;;;;5111227;28;20486;-74
2022/04/10 04:30:01;;;;;;;14.38;7.70;;;;;;;;;;5109553;28;20103;-74
2022/04/10 04:32:26;;;;;;;17.67;6.95;;;;;;;;;;5111259;28;20023;-74
2022/04/10 04:34:51;;;;;;;16.30;7.70;;;;;;;;;;5111042;28;20080;-74
2022/04/10 04:37:17;;;;;;;14.27;7.13;;;;;;;;;;5111419;28;20089;-75
2022/04/10 04:39:42;;;;;;;18.33;8.93;;;;;;;;;;5109678;28;20026;-74
2022/04/10 04:42:07;;;;;;;20.67;9.45;;;;;;;;;;5109885;28;20031;-74
2022/04/10 04:44:33;;;;;;;18.15;9.27;;;;;;;;;;5109725;28;20469;-74
2022/04/10 04:46:58;;;;;;;20.30;9.07;;;;;;;;;;5110984;28;20027;-74
2022/04/10 04:49:26;;;;;;;16.02;8.85;;;;;;;;;;5111374;28;20458;-74
2022/04/10 04:51:51;;;;;;;24.92;10.15;;;;;;;;;;5110583;28;20024;-74
2022/04/10 04:54:17;;;;;;;19.77;9.00;;;;;;;;;;5110961;28;20042;-74
2022/04/10 04:56:42;;;;;;;20.05;8.98;;;;;;;;;;5111083;28;20020;-75
2022/04/10 04:59:07;;;;;;;18.92;8.30;;;;;;;;;;5110377;28;20034;-75
2022/04/10 05:01:33;;;;;;;18.95;8.02;;;;;;;;;;5121714;28;20115;-77
2022/04/10 05:03:58;;;;;;;17.65;7.82;;;;;;;;;;5109145;28;20015;-74
2022/04/10 05:06:25;;;;;;;15.57;6.82;;;;;;;;;;5124426;28;20018;-75
2022/04/10 05:08:50;;;;;;;13.50;6.72;;;;;;;;;;5130998;27;20106;-75
2022/04/10 05:11:15;;;;;;;13.82;6.28;;;;;;;;;;5129525;28;20110;-75
2022/04/10 05:13:41;;;;;;;15.52;8.13;;;;;;;;;;5130913;28;20021;-75
2022/04/10 05:16:07;;;;;;;13.95;6.43;;;;;;;;;;5130830;27;20059;-75
2022/04/10 05:18:32;;;;;;;13.75;6.05;;;;;;;;;;5117245;27;20478;-75
2022/04/10 05:20:58;;;;;;;13.27;6.05;;;;;;;;;;5111231;28;20067;-75
2022/04/10 05:23:23;;;;;;;11.18;6.03;;;;;;;;;;5113447;28;20365;-75
2022/04/10 05:25:50;;;;;;;15.68;6.63;;;;;;;;;;5116847;28;20016;-76
2022/04/10 05:28:15;;;;;;;14.27;7.15;;;;;;;;;;5113216;28;20110;-74
2022/04/10 05:30:40;;;;;;;14.95;6.70;;;;;;;;;;5112912;28;20115;-77
2022/04/10 05:33:06;;;;;;;16.13;7.78;;;;;;;;;;5114307;28;20076;-75
2022/04/10 05:35:31;;;;;;;13.70;6.55;;;;;;;;;;5114365;28;20028;-75
2022/04/10 05:37:57;;;;;;;17.08;7.15;;;;;;;;;;5119032;28;20027;-75
2022/04/10 05:40:22;;;;;;;14.55;7.35;;;;;;;;;;5114125;28;20027;-76
2022/04/10 05:42:47;;;;;;;14.52;8.10;;;;;;;;;;5113784;28;20030;-75
2022/04/10 05:45:13;;;;;;;16.02;7.70;;;;;;;;;;5114143;28;20023;-75
2022/04/10 05:47:39;;;;;;;15.40;8.23;;;;;;;;;;5114257;27;20073;-75
2022/04/10 05:50:05;;;;;;;21.17;8.45;;;;;;;;;;5114331;28;20549;-76
2022/04/10 05:52:30;;;;;;;14.90;7.25;;;;;;;;;;5114086;28;20473;-76
2022/04/10 05:54:59;;;;;;;12.65;6.60;;;;;;;;;;5127524;27;20018;-77
2022/04/10 05:57:24;;;;;;;11.85;6.45;;;;;;;;;;5135322;27;20075;-75
2022/04/10 05:59:50;;;;;;;18.10;7.90;;;;;;;;;;5134460;27;20011;-77
2022/04/10 06:02:15;;;;;;;18.73;7.50;;;;;;;;;;5134503;27;20395;-76
2022/04/10 06:04:40;;;;;;;14.43;7.15;;;;;;;;;;5133928;27;20105;-76
2022/04/10 06:07:06;;;;;;;11.60;6.53;;;;;;;;;;5133979;27;20019;-76
2022/04/10 06:09:31;;;;;;;15.45;7.47;;;;;;;;;;5134203;27;20015;-77
2022/04/10 06:11:56;;;;;;;11.40;6.30;;;;;;;;;;5134322;27;20038;-74
2022/04/10 06:14:22;;;;;;;13.45;6.47;;;;;;;;;;5132665;27;20468;-76
2022/04/10 06:16:48;;;;;;;13.43;6.70;;;;;;;;;;5133734;27;20043;-76
2022/04/10 06:19:16;;;;;;;12.18;6.72;;;;;;;;;;5132854;27;20487;-75
2022/04/10 06:21:41;;;;;;;10.30;5.43;;;;;;;;;;5132609;27;20500;-76
2022/04/10 06:24:06;;;;;;;10.57;6.15;;;;;;;;;;5133639;27;20051;-76
2022/04/10 06:26:31;;;;;;;7.53;5.32;;;;;;;;;;5133563;27;20015;-76
2022/04/10 06:28:57;;;;;;;7.25;4.60;;;;;;;;;;5134011;27;20496;-76
2022/04/10 06:31:22;;;;;;;9.77;5.45;;;;;;;;;;5134375;27;20022;-76
2022/04/10 06:33:47;;;;;;;9.57;4.80;;;;;;;;;;5132891;27;20031;-75
2022/04/10 06:36:12;;;;;;;9.15;5.35;;;;;;;;;;5133672;27;20015;-76
2022/04/10 06:38:38;;;;;;;9.05;4.60;;;;;;;;;;5133576;27;20051;-75
2022/04/10 06:41:03;;;;;;;9.07;5.30;;;;;;;;;;5133572;27;20098;-75
2022/04/10 06:43:28;;;;;;;9.32;5.40;;;;;;;;;;5133154;27;20487;-75
2022/04/10 06:45:53;;;;;;;8.70;5.00;;;;;;;;;;5132607;27;20152;-76
2022/04/10 06:48:19;;;;;;;10.07;5.50;;;;;;;;;;5134409;27;20015;-76
2022/04/10 06:50:44;;;;;;;10.50;5.22;;;;;;;;;;5131337;27;20087;-78
2022/04/10 06:53:09;;;;;;;9.88;5.13;;;;;;;;;;5114931;27;20480;-75
2022/04/10 06:55:35;;;;;;;10.82;5.60;;;;;;;;;;5111837;28;20015;-74
2022/04/10 06:58:00;;;;;;;10.60;5.30;;;;;;;;;;5118334;27;20047;-75
2022/04/10 07:00:27;;;;;;;11.88;5.85;;;;;;;;;;5112573;28;20014;-74
2022/04/10 07:02:52;;;;;;;10.98;5.22;;;;;;;;;;5112384;28;20039;-75
2022/04/10 07:05:18;;;;;;;9.60;4.68;;;;;;;;;;5112554;28;20030;-75
2022/04/10 07:07:43;;;;;;;9.15;4.95;;;;;;;;;;5112755;28;20107;-75
2022/04/10 07:10:08;;;;;;;8.52;4.88;;;;;;;;;;5117615;28;20016;-76
2022/04/10 07:12:34;;;;;;;9.43;5.10;;;;;;;;;;5113136;28;20387;-74
2022/04/10 07:15:02;;;;;;;11.05;5.10;;;;;;;;;;5112804;28;20448;-75
2022/04/10 07:17:29;;;;;;;8.43;5.32;;;;;;;;;;5112683;28;20036;-76
2022/04/10 07:19:54;;;;;;;8.93;5.38;;;;;;;;;;5112624;28;20058;-76
2022/04/10 07:25:04;;;;;;;8.25;4.90;;;;;;;;;;5112277;28;20047;-74
2022/04/10 07:27:29;;;;;;;8.52;4.85;;;;;;;;;;5111848;27;20717;-73
2022/04/10 07:29:55;;;;;;;9.38;5.90;;;;;;;;;;5111777;28;20018;-74
2022/04/10 07:32:20;;;;;;;9.77;5.15;;;;;;;;;;5111673;28;20015;-74
2022/04/10 07:34:45;;;;;;;10.10;6.15;;;;;;;;;;5115138;27;20079;-73
2022/04/10 07:37:10;;;;;;;8.40;4.78;;;;;;;;;;5120579;27;20023;-74
2022/04/10 07:39:36;;;;;;;8.55;5.30;;;;;;;;;;5122427;27;20007;-73
2022/04/10 07:42:01;;;;;;;9.10;5.25;;;;;;;;;;5120869;27;20046;-73
2022/04/10 07:44:26;;;;;;;9.35;5.07;;;;;;;;;;5128159;27;20472;-73
2022/04/10 07:49:35;;;;;;;10.68;5.88;;;;;;;;;;5133275;27;20048;-75
2022/04/10 07:52:00;;;;;;;10.02;5.22;;;;;;;;;;5131830;27;20023;-74
2022/04/10 07:54:26;;;;;;;9.95;6.25;;;;;;;;;;5122062;27;20488;-74
2022/04/10 07:56:51;;;;;;;8.38;4.80;;;;;;;;;;5111387;28;20015;-74
2022/04/10 07:59:17;;;;;;;8.80;5.00;;;;;;;;;;5118570;27;20034;-74
2022/04/10 08:01:42;;;;;;;9.60;5.60;;;;;;;;;;5134196;27;20019;-74
2022/04/10 08:04:07;;;;;;;10.93;6.00;;;;;;;;;;5117186;27;20885;-72
2022/04/10 08:06:33;;;;;;;10.85;5.88;;;;;;;;;;5119449;27;20015;-71
2022/04/10 08:08:58;;;;;;;9.98;5.40;;;;;;;;;;5120767;27;20027;-73
2022/04/10 08:11:23;;;;;;;9.27;5.53;;;;;;;;;;5118460;27;20015;-72
2022/04/10 08:13:49;;;;;;;8.10;4.95;;;;;;;;;;5119554;27;20038;-72
2022/04/10 08:16:15;;;;;;;9.67;5.40;;;;;;;;;;5116394;27;20434;-73
2022/04/10 08:18:40;;;;;;;9.00;5.05;;;;;;;;;;5116825;27;20252;-72
2022/04/10 08:21:06;;;;;;;7.57;5.07;;;;;;;;;;5117683;27;20433;-73
2022/04/10 08:23:31;;;;;;;9.07;5.05;;;;;;;;;;5115669;27;20024;-71
2022/04/10 08:25:57;;;;;;;10.90;5.57;;;;;;;;;;5117231;27;20048;-72
2022/04/10 08:28:22;;;;;;;10.15;5.50;;;;;;;;;;5116329;27;20056;-72
2022/04/10 08:30:47;;;;;;;10.95;5.68;;;;;;;;;;5119209;27;20142;-73
2022/04/10 08:33:13;;;;;;;10.07;6.80;;;;;;;;;;5115925;28;20383;-73
2022/04/10 08:35:38;;;;;;;9.88;5.97;;;;;;;;;;5120281;27;20019;-73
2022/04/10 08:38:03;;;;;;;12.75;7.07;;;;;;;;;;5117817;28;20484;-72
2022/04/10 08:40:31;;;;;;;11.07;6.65;;;;;;;;;;5116070;28;20095;-72
2022/04/10 08:42:58;;;;;;;11.95;6.60;;;;;;;;;;5115590;28;20401;-71
2022/04/10 08:45:27;;;;;;;13.18;7.00;;;;;;;;;;5114794;28;20016;-71
2022/04/10 08:47:53;;;;;;;9.77;5.40;;;;;;;;;;5115469;28;20083;-72
2022/04/10 08:50:27;;;;;;;9.80;6.13;;;;;;;;;;5117354;27;20433;-71
2022/04/10 08:52:55;;;;;;;9.13;6.00;;;;;;;;;;5117095;28;20844;-71
2022/04/10 08:55:21;;;;;;;9.15;5.88;;;;;;;;;;5118147;27;20020;-72
2022/04/10 08:57:46;;;;;;;11.18;6.35;;;;;;;;;;5120189;27;20442;-71
2022/04/10 09:00:12;;;;;;;11.03;5.90;;;;;;;;;;5118812;27;20015;-72
2022/04/10 09:02:47;;;;;;;9.63;6.38;;;;;;;;;;5123597;27;20291;-71
2022/04/10 09:05:19;;;;;;;9.52;5.88;;;;;;;;;;5123155;27;20015;-72
2022/04/10 09:08:03;;;;;;;10.43;5.90;;;;;;;;;;5119429;27;20027;-72
2022/04/10 09:10:28;;;;;;;8.52;5.55;;;;;;;;;;5119508;27;20065;-72
2022/04/10 09:12:53;;;;;;;9.70;5.57;;;;;;;;;;5122087;27;20028;-72
2022/04/10 09:15:20;;;;;;;9.00;5.97;;;;;;;;;;5117847;27;20035;-73
2022/04/10 09:17:54;;;;;;;9.35;5.93;;;;;;;;;;5121053;27;20255;-72
2022/04/10 09:20:19;;;;;;;8.25;5.80;;;;;;;;;;5120753;27;20483;-74
2022/04/10 09:22:44;;;;;;;7.97;5.40;;;;;;;;;;5119616;27;20043;-72
2022/04/10 09:25:13;;;;;;;7.70;5.27;;;;;;;;;;5121249;27;20255;-72
2022/04/10 09:27:40;;;;;;;9.02;5.88;;;;;;;;;;5121470;27;20640;-71
2022/04/10 09:30:07;;;;;;;9.60;6.10;;;;;;;;;;5120207;27;20042;-72
2022/04/10 09:32:41;;;;;;;10.00;6.25;;;;;;;;;;5118367;27;20020;-73
2022/04/10 09:35:07;;;;;;;10.73;6.30;;;;;;;;;;5122591;27;20106;-73
2022/04/10 09:37:40;;;;;;;10.68;6.80;;;;;;;;;;5118666;27;20107;-73
2022/04/10 09:40:25;;;;;;;8.32;5.55;;;;;;;;;;5122880;27;20032;-74
2022/04/10 09:43:10;;;;;;;9.48;6.03;;;;;;;;;;5120389;27;20023;-73
2022/04/10 09:45:36;;;;;;;;;;;;;;;;;;5121242;27;20054;-72
2022/04/10 09:48:19;;;;;;;8.53;5.57;;;;;;;;;;5120720;27;19949;-73
2022/04/10 09:50:45;;;;;;;9.70;6.28;;;;;;;;;;5118345;27;20047;-73
2022/04/10 09:53:11;;;;;;;10.48;6.40;;;;;;;;;;5117110;27;20061;-73
2022/04/10 09:55:40;;;;;;;8.98;6.00;;;;;;;;;;5124934;27;20917;-73
2022/04/10 09:58:07;;;;;;;9.05;6.38;;;;;;;;;;5130132;27;20022;-73
2022/04/10 10:00:35;;;;;;;11.02;6.40;;;;;;;;;;5127555;27;20015;-73
2022/04/10 10:03:00;;;;;;;10.23;6.53;;;;;;;;;;5122332;27;20099;-73
2022/04/10 10:05:26;;;;;;;8.73;5.70;;;;;;;;;;5120093;27;20106;-72
2022/04/10 10:07:51;;;;;;;9.55;6.30;;;;;;;;;;5119868;27;20033;-72
2022/04/10 10:10:19;;;;;;;7.65;5.50;;;;;;;;;;5117803;27;20023;-73
2022/04/10 10:12:46;;;;;;;8.60;6.07;;;;;;;;;;5119552;27;20106;-73
2022/04/10 10:15:11;;;;;;;8.20;5.45;;;;;;;;;;5119624;27;20077;-73
2022/04/10 10:17:37;;;;;;;9.65;5.72;;;;;;;;;;5118421;27;20015;-73
2022/04/10 10:20:03;;;;;;;8.90;5.25;;;;;;;;;;5123664;27;20109;-75
2022/04/10 10:22:28;;;;;;;9.13;6.82;;;;;;;;;;5126903;27;20035;-84
2022/04/10 10:24:56;;;;;;;7.60;4.80;;;;;;;;;;5121004;27;20034;-75
2022/04/10 10:27:44;;;;;;;8.77;5.82;;;;;;;;;;5125507;27;20813;-74
2022/04/10 10:30:29;;;;;;;10.30;5.88;;;;;;;;;;5107666;27;20067;-74
2022/04/10 10:32:56;;;;;;;7.23;5.20;;;;;;;;;;5120140;27;20087;-74
2022/04/10 10:35:30;;;;;;;9.02;4.85;;;;;;;;;;5120864;27;20011;-74
2022/04/10 10:37:56;;;;;;;6.90;5.03;;;;;;;;;;5121017;27;20487;-75
2022/04/10 10:40:21;;;;;;;7.35;4.95;;;;;;;;;;5118479;27;20036;-73
2022/04/10 10:42:50;;;;;;;9.13;4.55;;;;;;;;;;5113527;27;20388;-76
2022/04/10 10:45:36;;;;;;;6.22;4.30;;;;;;;;;;5120168;27;20071;-74
2022/04/10 10:48:21;;;;;;;8.57;4.28;;;;;;;;;;5120129;27;20023;-76
2022/04/10 10:50:46;;;;;;;7.10;4.30;;;;;;;;;;5120701;27;20023;-77
2022/04/10 10:53:12;;;;;;;5.43;3.23;;;;;;;;;;5120061;27;20054;-74
2022/04/10 10:55:44;;;;;;;5.72;3.60;;;;;;;;;;5118773;27;20245;-74
2022/04/10 10:58:10;;;;;;;6.15;3.85;;;;;;;;;;5122706;27;20056;-76
2022/04/10 11:00:36;;;;;;;5.80;3.10;;;;;;;;;;5116074;27;20437;-75
2022/04/10 11:03:07;;;;;;;6.28;3.17;;;;;;;;;;5119406;27;20030;-75
2022/04/10 11:05:35;;;;;;;5.90;3.25;;;;;;;;;;5131805;27;20031;-75
2022/04/10 11:08:02;;;;;;;5.30;3.08;;;;;;;;;;5124925;27;20023;-84
2022/04/10 11:10:29;;;;;;;4.28;2.70;;;;;;;;;;5137260;27;20047;-82
2022/04/10 11:12:59;;;;;;;5.38;2.70;;;;;;;;;;5126988;27;20023;-83
2022/04/10 11:15:29;;;;;;;4.97;2.50;;;;;;;;;;5126191;27;20055;-84
2022/04/10 11:17:54;;;;;;;3.70;2.45;;;;;;;;;;5119754;27;20015;-75
2022/04/10 11:20:21;;;;;;;5.20;2.60;;;;;;;;;;5111170;27;20014;-73
2022/04/10 11:22:47;;;;;;;4.38;2.22;;;;;;;;;;5109753;27;20067;-75
2022/04/10 11:25:16;;;;;;;3.13;2.00;;;;;;;;;;5121586;27;20047;-78
2022/04/10 11:27:50;;;;;;;4.70;2.60;;;;;;;;;;5116148;27;20088;-75
2022/04/10 11:30:23;;;;;;;3.80;2.17;;;;;;;;;;5127423;27;20018;-74
2022/04/10 11:32:50;;;;;;;4.93;3.20;;;;;;;;;;5116473;27;20026;-75
2022/04/10 11:35:18;;;;;;;10.27;5.45;;;;;;;;;;5116802;27;20537;-77
2022/04/10 11:37:46;;;;;;;5.30;2.85;;;;;;;;;;5109676;27;20034;-76
2022/04/10 11:40:12;;;;;;;5.32;2.47;;;;;;;;;;5125323;27;20055;-77
2022/04/10 11:42:37;;;;;;;6.32;3.72;;;;;;;;;;5119404;27;20507;-78
2022/04/10 11:45:03;;;;;;;5.45;2.53;;;;;;;;;;5122548;27;20019;-77
2022/04/10 11:47:28;;;;;;;4.70;2.70;;;;;;;;;;5123744;27;20023;-77
2022/04/10 11:49:54;;;;;;;6.65;3.92;;;;;;;;;;5113709;27;20035;-74
2022/04/10 11:52:19;;;;;;;7.35;3.35;;;;;;;;;;5127393;27;20024;-74
2022/04/10 11:54:45;;;;;;;4.68;1.95;;;;;;;;;;5112018;28;20742;-79
2022/04/10 11:57:10;;;;;;;3.67;2.00;;;;;;;;;;5121469;27;20019;-74
2022/04/10 11:59:43;;;;;;;3.28;1.80;;;;;;;;;;5128879;27;20030;-76
2022/04/10 12:02:09;;;;;;;1.83;1.40;;;;;;;;;;5115718;27;20020;-73
2022/04/10 12:04:36;;;;;;;4.63;2.30;;;;;;;;;;5114326;27;20528;-72
2022/04/10 12:07:11;;;;;;;329.50;149.77;;;;;;;;;;5107216;28;20445;-74
2022/04/10 12:09:37;;;;;;;16.80;10.25;;;;;;;;;;5114010;27;20031;-75
2022/04/10 12:12:02;;;;;;;3.15;1.70;;;;;;;;;;5126823;27;20137;-74
2022/04/10 12:14:27;;;;;;;2.53;1.77;;;;;;;;;;5114970;27;20019;-73
2022/04/10 12:16:53;;;;;;;3.22;1.60;;;;;;;;;;5115207;27;20035;-75
2022/04/10 12:19:35;;;;;;;3.17;1.95;;;;;;;;;;5114588;27;20380;-75
2022/04/10 12:22:10;;;;;;;4.15;1.88;;;;;;;;;;5121320;27;20027;-73
2022/04/10 12:24:36;;;;;;;4.07;1.60;;;;;;;;;;5127523;27;20040;-74
2022/04/10 12:27:03;;;;;;;4.65;3.00;;;;;;;;;;5117713;27;20125;-74
2022/04/10 12:29:29;;;;;;;3.42;1.98;;;;;;;;;;5111530;28;20076;-74
2022/04/10 12:31:55;;;;;;;2.88;1.88;;;;;;;;;;5110255;28;20023;-75
2022/04/10 12:34:23;;;;;;;3.03;1.85;;;;;;;;;;5116489;28;20093;-75
2022/04/10 12:36:52;;;;;;;5.38;2.22;;;;;;;;;;5116908;27;20016;-75
2022/04/10 12:39:27;;;;;;;2.90;1.90;;;;;;;;;;5119885;28;20023;-76
2022/04/10 12:41:59;;;;;;;2.95;1.90;;;;;;;;;;5107150;27;20472;-73
2022/04/10 12:44:25;;;;;;;4.78;2.88;;;;;;;;;;5116766;28;20083;-74
2022/04/10 12:46:50;;;;;;;5.30;3.40;;;;;;;;;;5118494;28;20062;-73
2022/04/10 12:49:17;;;;;;;4.15;2.30;;;;;;;;;;5122888;28;20020;-74
2022/04/10 12:51:55;;;;;;;2.70;1.75;;;;;;;;;;5116485;27;20020;-73
2022/04/10 12:54:37;;;;;;;2.70;1.80;;;;;;;;;;5120883;27;20080;-75
2022/04/10 12:57:03;;;;;;;5.25;2.85;;;;;;;;;;5119215;27;20016;-73
2022/04/10 12:59:45;;;;;;;3.35;2.25;;;;;;;;;;5126000;28;20027;-73
2022/04/10 13:02:30;;;;;;;4.15;2.28;;;;;;;;;;5124291;28;20100;-71
2022/04/10 13:04:55;;;;;;;3.47;2.05;;;;;;;;;;5121422;27;20020;-72
2022/04/10 13:07:20;;;;;;;2.75;1.75;;;;;;;;;;5110736;28;20372;-72
2022/04/10 13:10:05;;;;;;;2.55;1.58;;;;;;;;;;5114220;28;20024;-72
2022/04/10 13:12:31;;;;;;;3.03;2.08;;;;;;;;;;5123402;27;20376;-72
2022/04/10 13:14:56;;;;;;;2.67;1.70;;;;;;;;;;5121014;28;20050;-72
2022/04/10 13:17:29;;;;;;;2.42;1.60;;;;;;;;;;5115280;28;20016;-72
2022/04/10 13:20:00;;;;;;;3.75;1.60;;;;;;;;;;5125862;28;20061;-72
2022/04/10 13:22:25;;;;;;;2.55;1.52;;;;;;;;;;5109434;28;20023;-72
2022/04/10 13:24:51;;;;;;;2.78;1.67;;;;;;;;;;5119108;28;20072;-73
2022/04/10 13:27:17;;;;;;;2.23;1.53;;;;;;;;;;5116568;28;20012;-72
2022/04/10 13:29:42;;;;;;;1.90;1.40;;;;;;;;;;5126961;28;20247;-73
2022/04/10 13:32:07;;;;;;;2.80;1.87;;;;;;;;;;5114126;28;20460;-73
2022/04/10 13:34:34;;;;;;;3.17;1.85;;;;;;;;;;5122632;28;20748;-73
2022/04/10 13:37:00;;;;;;;2.58;1.50;;;;;;;;;;5109421;28;20061;-73
2022/04/10 13:39:25;;;;;;;2.47;1.60;;;;;;;;;;5118093;28;20112;-76
2022/04/10 13:41:51;;;;;;;2.78;1.83;;;;;;;;;;5113411;27;20476;-74
2022/04/10 13:44:16;;;;;;;2.33;1.92;;;;;;;;;;5127738;27;20063;-73
2022/04/10 13:46:42;;;;;;;3.25;1.85;;;;;;;;;;5122471;27;20100;-73
2022/04/10 13:49:07;;;;;;;2.50;1.80;;;;;;;;;;5121003;27;20492;-73
2022/04/10 13:51:32;;;;;;;1.85;1.40;;;;;;;;;;5128622;27;20043;-73
2022/04/10 13:53:57;;;;;;;3.33;1.88;;;;;;;;;;5116692;27;20019;-73
2022/04/10 13:56:23;;;;;;;3.10;1.80;;;;;;;;;;5127554;27;20019;-73
2022/04/10 13:58:48;;;;;;;2.70;1.60;;;;;;;;;;5122321;27;20014;-73
2022/04/10 14:01:13;;;;;;;1.52;1.30;;;;;;;;;;5120219;27;20030;-73
2022/04/10 14:03:38;;;;;;;2.50;1.50;;;;;;;;;;5112947;27;20038;-74
2022/04/10 14:06:04;;;;;;;2.95;1.65;;;;;;;;;;5116132;27;20796;-76
2022/04/10 14:08:29;;;;;;;2.55;1.60;;;;;;;;;;5126023;27;20015;-75
2022/04/10 14:10:54;;;;;;;3.67;1.73;;;;;;;;;;5119408;27;20023;-73
2022/04/10 14:13:20;;;;;;;2.45;1.80;;;;;;;;;;5130901;27;20051;-73
2022/04/10 14:15:45;;;;;;;2.88;1.70;;;;;;;;;;5115864;27;20083;-73
2022/04/10 14:18:10;;;;;;;2.15;1.65;;;;;;;;;;5117749;27;20032;-72
2022/04/10 14:20:35;;;;;;;2.88;1.60;;;;;;;;;;5118228;27;20047;-72
2022/04/10 14:23:01;;;;;;;2.42;1.50;;;;;;;;;;5119042;27;20066;-72
2022/04/10 14:25:26;;;;;;;2.38;1.60;;;;;;;;;;5122044;27;20012;-72
2022/04/10 14:27:52;;;;;;;3.35;1.70;;;;;;;;;;5125651;27;20027;-72
2022/04/10 14:30:17;;;;;;;2.03;1.50;;;;;;;;;;5118350;27;20042;-73
2022/04/10 14:32:42;;;;;;;1.90;1.50;;;;;;;;;;5111366;27;20268;-72
2022/04/10 14:35:07;;;;;;;2.57;1.37;;;;;;;;;;5120898;27;20018;-72